To NAV CANADA Home Page Login to a new session Search on AWWS site Feedback and Comments Disclaimer Vers la page française équivalente Tips FAQ What's new on the site To the Forecasts and Observations / NOTAM section To "File a Flight Plan" website Publications and other links Update of the User's profile FIC Telephone Numbers My Weather Data Folder Route Weather Data Regional Weather Data Local Weather Data To the Forecasts and Observations / NOTAM section
Request Generated 01/17/2017 at 04:53:40 UTC . Weather information available at that time is displayed.

METAR/TAF

STEPHENVILLE/NL    

METAR CYJT 170400Z CCA 20023G29KT 3/8SM R27/6000FT/D SN BLSN VV001
M05/M07 A2980 RMK SN8 /S01/ SLP095=
METAR CYJT 170400Z 20023G29KT 3/8SM R27/6000FT/D SN VV001 M05/M07
A2980 RMK SN8 /S01/ SLP095=
SPECI CYJT 170355Z 20021G26KT 3/8SM R27/P6000FT/D SN OVC022 M05/M06
A2981 RMK SN5SC3 PRESFR SLP096=
SPECI CYJT 170323Z 20022KT 3/8SM R27/P6000FT/D -SN OVC022 M05/M07
A2984 RMK SN5SC3 PRESFR SLP106=
METAR CYJT 170300Z 20021G26KT 3SM -SN BKN022 OVC030 M05/M08 A2986 RMK
SC6SC2 SLP113=
METAR CYJT 170200Z 20021KT 3SM -SN BKN022 OVC030 M05/M08 A2991 RMK
SC6SC2 /S01/ PRESFR SLP130=

TAF AMD CYJT 170223Z 1702/1724 20020KT 3SM -SN OVC020 TEMPO 1702/1704
11/2SM -SN BLSN VV012
FM170400 21020G30KT 3/4SM -SN BLSN VV008 TEMPO 1704/1706 2SM -SN
BLSN OVC015
FM170600 26018G28KT 11/2SM -SHSN BLSN OVC015 PROB40 1706/1708
1/2SM SHSN BLSN VV005
FM170800 29020G30KT 5SM -SN OVC020
FM171100 30020G30KT P6SM OVC020
FM171700 32015G25KT P6SM BKN025
FM172200 33018G28KT P6SM BKN020
RMK NXT FCST BY 170600Z=
Your time UTC time
Weather data provided by Environment Canada and NAV CANADA